sensor_id;sensor_type;location;lat;lon;timestamp;P1;durP1;ratioP1;P2;durP2;ratioP2
14965;SDS011;7577;45.226;5.798;2022-11-21T00:02:40;4.07;;;3.10;;
14965;SDS011;7577;45.226;5.798;2022-11-21T00:05:44;3.07;;;2.60;;
14965;SDS011;7577;45.226;5.798;2022-11-21T00:12:15;4.07;;;2.43;;
14965;SDS011;7577;45.226;5.798;2022-11-21T00:18:47;3.93;;;2.90;;
14965;SDS011;7577;45.226;5.798;2022-11-21T00:53:40;4.60;;;3.70;;
14965;SDS011;7577;45.226;5.798;2022-11-21T00:56:11;3.37;;;3.07;;
14965;SDS011;7577;45.226;5.798;2022-11-21T00:59:52;3.17;;;2.50;;
14965;SDS011;7577;45.226;5.798;2022-11-21T01:02:25;3.23;;;2.37;;
14965;SDS011;7577;45.226;5.798;2022-11-21T01:05:18;2.87;;;2.57;;
14965;SDS011;7577;45.226;5.798;2022-11-21T01:08:01;3.73;;;3.07;;
14965;SDS011;7577;45.226;5.798;2022-11-21T01:10:45;3.00;;;2.00;;
14965;SDS011;7577;45.226;5.798;2022-11-21T01:13:15;2.90;;;2.17;;
14965;SDS011;7577;45.226;5.798;2022-11-21T01:15:56;3.43;;;2.53;;
14965;SDS011;7577;45.226;5.798;2022-11-21T01:18:32;4.10;;;2.73;;
14965;SDS011;7577;45.226;5.798;2022-11-21T01:21:03;3.27;;;2.77;;
14965;SDS011;7577;45.226;5.798;2022-11-21T01:23:37;4.93;;;3.23;;
14965;SDS011;7577;45.226;5.798;2022-11-21T01:26:09;3.23;;;2.43;;
14965;SDS011;7577;45.226;5.798;2022-11-21T01:28:41;2.80;;;2.50;;
14965;SDS011;7577;45.226;5.798;2022-11-21T01:31:12;4.13;;;2.80;;
14965;SDS011;7577;45.226;5.798;2022-11-21T01:33:56;3.27;;;2.80;;
14965;SDS011;7577;45.226;5.798;2022-11-21T01:39:31;3.13;;;2.90;;
14965;SDS011;7577;45.226;5.798;2022-11-21T01:42:07;2.90;;;2.60;;
14965;SDS011;7577;45.226;5.798;2022-11-21T01:44:48;2.50;;;2.00;;
14965;SDS011;7577;45.226;5.798;2022-11-21T01:50:31;2.63;;;1.83;;
14965;SDS011;7577;45.226;5.798;2022-11-21T01:53:02;2.30;;;2.00;;
14965;SDS011;7577;45.226;5.798;2022-11-21T01:55:33;1.97;;;1.50;;
14965;SDS011;7577;45.226;5.798;2022-11-21T01:58:14;3.23;;;1.80;;
14965;SDS011;7577;45.226;5.798;2022-11-21T02:00:47;2.33;;;1.90;;
14965;SDS011;7577;45.226;5.798;2022-11-21T02:03:18;4.70;;;1.60;;
14965;SDS011;7577;45.226;5.798;2022-11-21T02:05:58;2.10;;;1.60;;
14965;SDS011;7577;45.226;5.798;2022-11-21T02:08:49;1.90;;;1.47;;
14965;SDS011;7577;45.226;5.798;2022-11-21T02:11:22;1.60;;;1.50;;
14965;SDS011;7577;45.226;5.798;2022-11-21T02:13:55;4.90;;;1.80;;
14965;SDS011;7577;45.226;5.798;2022-11-21T02:16:40;2.03;;;1.37;;
14965;SDS011;7577;45.226;5.798;2022-11-21T02:19:16;2.10;;;1.70;;
14965;SDS011;7577;45.226;5.798;2022-11-21T02:21:51;1.97;;;1.77;;
14965;SDS011;7577;45.226;5.798;2022-11-21T02:34:56;1.30;;;1.20;;
14965;SDS011;7577;45.226;5.798;2022-11-21T02:37:28;1.70;;;1.50;;
14965;SDS011;7577;45.226;5.798;2022-11-21T02:40:20;1.83;;;1.60;;
14965;SDS011;7577;45.226;5.798;2022-11-21T02:42:58;3.60;;;1.63;;
14965;SDS011;7577;45.226;5.798;2022-11-21T02:45:30;2.60;;;1.50;;
14965;SDS011;7577;45.226;5.798;2022-11-21T02:48:04;2.83;;;2.00;;
14965;SDS011;7577;45.226;5.798;2022-11-21T02:50:50;2.60;;;1.50;;
14965;SDS011;7577;45.226;5.798;2022-11-21T02:53:22;3.80;;;2.10;;
14965;SDS011;7577;45.226;5.798;2022-11-21T02:56:21;3.00;;;2.47;;
14965;SDS011;7577;45.226;5.798;2022-11-21T02:58:51;3.80;;;3.20;;
14965;SDS011;7577;45.226;5.798;2022-11-21T03:01:31;4.07;;;2.97;;
14965;SDS011;7577;45.226;5.798;2022-11-21T03:04:14;5.57;;;4.10;;
14965;SDS011;7577;45.226;5.798;2022-11-21T03:07:00;8.43;;;4.57;;
14965;SDS011;7577;45.226;5.798;2022-11-21T03:09:35;7.33;;;4.60;;
14965;SDS011;7577;45.226;5.798;2022-11-21T03:12:18;6.97;;;4.50;;
14965;SDS011;7577;45.226;5.798;2022-11-21T03:14:51;6.80;;;4.10;;
14965;SDS011;7577;45.226;5.798;2022-11-21T03:24:32;3.87;;;3.47;;
14965;SDS011;7577;45.226;5.798;2022-11-21T03:27:07;5.03;;;3.57;;
14965;SDS011;7577;45.226;5.798;2022-11-21T03:30:06;4.37;;;3.23;;
14965;SDS011;7577;45.226;5.798;2022-11-21T03:32:38;4.50;;;3.87;;
14965;SDS011;7577;45.226;5.798;2022-11-21T03:35:09;8.07;;;3.73;;
14965;SDS011;7577;45.226;5.798;2022-11-21T03:37:41;4.67;;;3.50;;
14965;SDS011;7577;45.226;5.798;2022-11-21T03:40:37;4.07;;;3.57;;
14965;SDS011;7577;45.226;5.798;2022-11-21T03:43:08;5.87;;;3.30;;
14965;SDS011;7577;45.226;5.798;2022-11-21T03:45:39;5.37;;;3.93;;
14965;SDS011;7577;45.226;5.798;2022-11-21T03:48:09;6.40;;;4.77;;
14965;SDS011;7577;45.226;5.798;2022-11-21T05:11:36;386.17;;;17.43;;
14965;SDS011;7577;45.226;5.798;2022-11-21T05:14:24;238.97;;;14.03;;
14965;SDS011;7577;45.226;5.798;2022-11-21T05:16:54;257.33;;;13.57;;
14965;SDS011;7577;45.226;5.798;2022-11-21T05:19:26;85.43;;;9.33;;
14965;SDS011;7577;45.226;5.798;2022-11-21T05:21:56;122.13;;;8.63;;
14965;SDS011;7577;45.226;5.798;2022-11-21T05:24:26;36.70;;;7.57;;
14965;SDS011;7577;45.226;5.798;2022-11-21T05:26:56;110.83;;;8.17;;
14965;SDS011;7577;45.226;5.798;2022-11-21T05:29:36;36.10;;;7.40;;
14965;SDS011;7577;45.226;5.798;2022-11-21T05:32:06;25.10;;;5.97;;
14965;SDS011;7577;45.226;5.798;2022-11-21T05:34:36;19.60;;;5.77;;
14965;SDS011;7577;45.226;5.798;2022-11-21T05:37:06;6.67;;;5.10;;
14965;SDS011;7577;45.226;5.798;2022-11-21T05:39:36;6.17;;;4.70;;
14965;SDS011;7577;45.226;5.798;2022-11-21T05:42:06;6.47;;;5.43;;
14965;SDS011;7577;45.226;5.798;2022-11-21T05:44:37;6.17;;;5.00;;
14965;SDS011;7577;45.226;5.798;2022-11-21T05:47:07;5.87;;;5.20;;
14965;SDS011;7577;45.226;5.798;2022-11-21T05:49:37;6.60;;;5.13;;
14965;SDS011;7577;45.226;5.798;2022-11-21T05:52:07;5.17;;;4.30;;
14965;SDS011;7577;45.226;5.798;2022-11-21T05:54:42;5.17;;;4.57;;
14965;SDS011;7577;45.226;5.798;2022-11-21T05:57:25;5.30;;;3.97;;
14965;SDS011;7577;45.226;5.798;2022-11-21T06:00:00;4.63;;;3.67;;
14965;SDS011;7577;45.226;5.798;2022-11-21T06:02:30;4.33;;;3.70;;
14965;SDS011;7577;45.226;5.798;2022-11-21T06:05:18;4.87;;;3.40;;
14965;SDS011;7577;45.226;5.798;2022-11-21T06:07:53;6.43;;;4.10;;
14965;SDS011;7577;45.226;5.798;2022-11-21T06:10:23;5.60;;;4.53;;
14965;SDS011;7577;45.226;5.798;2022-11-21T06:12:58;5.57;;;4.23;;
14965;SDS011;7577;45.226;5.798;2022-11-21T06:15:35;5.27;;;4.13;;
14965;SDS011;7577;45.226;5.798;2022-11-21T06:18:08;5.13;;;4.17;;
14965;SDS011;7577;45.226;5.798;2022-11-21T06:20:40;7.47;;;4.47;;
14965;SDS011;7577;45.226;5.798;2022-11-21T06:23:21;7.17;;;5.70;;
14965;SDS011;7577;45.226;5.798;2022-11-21T06:25:55;5.40;;;4.33;;
14965;SDS011;7577;45.226;5.798;2022-11-21T06:28:47;7.47;;;5.30;;
14965;SDS011;7577;45.226;5.798;2022-11-21T06:31:24;6.70;;;5.17;;
14965;SDS011;7577;45.226;5.798;2022-11-21T06:34:05;4.83;;;4.00;;
14965;SDS011;7577;45.226;5.798;2022-11-21T06:36:40;3.17;;;2.87;;
14965;SDS011;7577;45.226;5.798;2022-11-21T06:39:13;5.20;;;3.73;;
14965;SDS011;7577;45.226;5.798;2022-11-21T06:41:52;3.47;;;3.13;;
14965;SDS011;7577;45.226;5.798;2022-11-21T06:44:22;4.20;;;3.50;;
14965;SDS011;7577;45.226;5.798;2022-11-21T06:47:09;4.17;;;3.77;;
14965;SDS011;7577;45.226;5.798;2022-11-21T06:49:39;2.87;;;2.30;;
14965;SDS011;7577;45.226;5.798;2022-11-21T06:52:09;2.40;;;2.20;;
14965;SDS011;7577;45.226;5.798;2022-11-21T06:54:39;2.77;;;2.50;;
14965;SDS011;7577;45.226;5.798;2022-11-21T06:57:10;2.83;;;2.40;;
14965;SDS011;7577;45.226;5.798;2022-11-21T06:59:50;4.43;;;2.10;;
14965;SDS011;7577;45.226;5.798;2022-11-21T07:02:20;5.50;;;3.00;;
14965;SDS011;7577;45.226;5.798;2022-11-21T07:05:08;3.53;;;2.97;;
14965;SDS011;7577;45.226;5.798;2022-11-21T07:07:44;3.73;;;3.17;;
14965;SDS011;7577;45.226;5.798;2022-11-21T07:20:53;3.93;;;3.53;;
14965;SDS011;7577;45.226;5.798;2022-11-21T07:23:30;4.83;;;3.57;;
14965;SDS011;7577;45.226;5.798;2022-11-21T07:26:13;5.20;;;3.67;;
14965;SDS011;7577;45.226;5.798;2022-11-21T07:28:43;4.10;;;3.13;;
14965;SDS011;7577;45.226;5.798;2022-11-21T07:31:13;3.10;;;2.40;;
14965;SDS011;7577;45.226;5.798;2022-11-21T07:33:43;3.13;;;2.57;;
14965;SDS011;7577;45.226;5.798;2022-11-21T07:36:17;4.03;;;2.87;;
14965;SDS011;7577;45.226;5.798;2022-11-21T07:38:47;3.60;;;3.20;;
14965;SDS011;7577;45.226;5.798;2022-11-21T07:41:26;4.83;;;4.27;;
14965;SDS011;7577;45.226;5.798;2022-11-21T07:43:56;7.03;;;5.00;;
14965;SDS011;7577;45.226;5.798;2022-11-21T07:46:26;7.73;;;5.30;;
14965;SDS011;7577;45.226;5.798;2022-11-21T07:48:59;7.33;;;5.10;;
14965;SDS011;7577;45.226;5.798;2022-11-21T07:51:42;5.37;;;4.50;;
14965;SDS011;7577;45.226;5.798;2022-11-21T07:54:12;5.70;;;5.10;;
14965;SDS011;7577;45.226;5.798;2022-11-21T07:56:45;6.00;;;4.80;;
14965;SDS011;7577;45.226;5.798;2022-11-21T07:59:20;5.83;;;5.23;;
14965;SDS011;7577;45.226;5.798;2022-11-21T08:02:02;5.37;;;4.87;;
14965;SDS011;7577;45.226;5.798;2022-11-21T08:04:33;5.03;;;3.90;;
14965;SDS011;7577;45.226;5.798;2022-11-21T08:07:21;4.10;;;3.70;;
14965;SDS011;7577;45.226;5.798;2022-11-21T08:09:51;4.57;;;4.13;;
14965;SDS011;7577;45.226;5.798;2022-11-21T08:12:25;6.10;;;5.37;;
14965;SDS011;7577;45.226;5.798;2022-11-21T08:14:56;7.53;;;6.60;;
14965;SDS011;7577;45.226;5.798;2022-11-21T08:17:26;11.33;;;8.43;;
14965;SDS011;7577;45.226;5.798;2022-11-21T08:19:56;12.10;;;7.87;;
14965;SDS011;7577;45.226;5.798;2022-11-21T08:22:28;10.33;;;7.30;;
14965;SDS011;7577;45.226;5.798;2022-11-21T08:24:58;8.30;;;6.43;;
14965;SDS011;7577;45.226;5.798;2022-11-21T08:27:42;6.83;;;5.80;;
14965;SDS011;7577;45.226;5.798;2022-11-21T08:30:23;8.37;;;5.67;;
14965;SDS011;7577;45.226;5.798;2022-11-21T08:32:54;7.10;;;5.40;;
14965;SDS011;7577;45.226;5.798;2022-11-21T08:35:25;6.77;;;5.10;;
14965;SDS011;7577;45.226;5.798;2022-11-21T08:37:57;6.17;;;4.80;;
14965;SDS011;7577;45.226;5.798;2022-11-21T08:40:30;5.77;;;4.87;;
14965;SDS011;7577;45.226;5.798;2022-11-21T08:43:02;6.30;;;4.90;;
14965;SDS011;7577;45.226;5.798;2022-11-21T08:45:35;6.40;;;5.40;;
14965;SDS011;7577;45.226;5.798;2022-11-21T08:48:09;9.80;;;7.70;;
14965;SDS011;7577;45.226;5.798;2022-11-21T08:50:39;9.40;;;7.63;;
14965;SDS011;7577;45.226;5.798;2022-11-21T08:53:12;6.40;;;5.80;;
14965;SDS011;7577;45.226;5.798;2022-11-21T08:55:42;6.57;;;5.63;;
14965;SDS011;7577;45.226;5.798;2022-11-21T08:58:30;6.40;;;5.50;;
14965;SDS011;7577;45.226;5.798;2022-11-21T09:01:00;6.97;;;6.20;;
14965;SDS011;7577;45.226;5.798;2022-11-21T09:03:30;6.13;;;5.63;;
14965;SDS011;7577;45.226;5.798;2022-11-21T09:06:00;7.30;;;5.77;;
14965;SDS011;7577;45.226;5.798;2022-11-21T09:08:51;8.00;;;6.63;;
14965;SDS011;7577;45.226;5.798;2022-11-21T09:11:21;10.07;;;8.30;;
14965;SDS011;7577;45.226;5.798;2022-11-21T09:13:52;9.90;;;8.33;;
14965;SDS011;7577;45.226;5.798;2022-11-21T09:16:40;10.27;;;7.83;;
14965;SDS011;7577;45.226;5.798;2022-11-21T09:19:30;10.90;;;7.63;;
14965;SDS011;7577;45.226;5.798;2022-11-21T09:22:00;11.07;;;7.80;;
14965;SDS011;7577;45.226;5.798;2022-11-21T09:24:30;10.23;;;7.80;;
14965;SDS011;7577;45.226;5.798;2022-11-21T09:27:00;9.27;;;7.67;;
14965;SDS011;7577;45.226;5.798;2022-11-21T09:29:41;7.93;;;7.20;;
14965;SDS011;7577;45.226;5.798;2022-11-21T09:32:11;7.93;;;7.17;;
14965;SDS011;7577;45.226;5.798;2022-11-21T09:34:41;7.70;;;6.90;;
14965;SDS011;7577;45.226;5.798;2022-11-21T09:37:22;8.43;;;7.53;;
14965;SDS011;7577;45.226;5.798;2022-11-21T09:39:52;9.30;;;6.70;;
14965;SDS011;7577;45.226;5.798;2022-11-21T09:42:29;4.67;;;4.27;;
14965;SDS011;7577;45.226;5.798;2022-11-21T09:45:07;5.73;;;4.80;;
14965;SDS011;7577;45.226;5.798;2022-11-21T09:47:44;6.57;;;4.90;;
14965;SDS011;7577;45.226;5.798;2022-11-21T09:50:23;4.57;;;4.17;;
14965;SDS011;7577;45.226;5.798;2022-11-21T09:53:08;9.37;;;6.87;;
14965;SDS011;7577;45.226;5.798;2022-11-21T09:55:42;10.50;;;8.53;;
14965;SDS011;7577;45.226;5.798;2022-11-21T10:01:13;10.57;;;9.47;;
14965;SDS011;7577;45.226;5.798;2022-11-21T10:03:51;11.03;;;8.07;;
14965;SDS011;7577;45.226;5.798;2022-11-21T10:06:27;9.87;;;8.83;;
14965;SDS011;7577;45.226;5.798;2022-11-21T10:09:13;10.07;;;7.57;;
14965;SDS011;7577;45.226;5.798;2022-11-21T10:11:50;7.13;;;6.43;;
14965;SDS011;7577;45.226;5.798;2022-11-21T10:17:28;10.60;;;6.77;;
14965;SDS011;7577;45.226;5.798;2022-11-21T10:20:08;8.73;;;7.40;;
14965;SDS011;7577;45.226;5.798;2022-11-21T10:22:57;9.03;;;7.43;;
14965;SDS011;7577;45.226;5.798;2022-11-21T10:25:48;9.00;;;7.50;;
14965;SDS011;7577;45.226;5.798;2022-11-21T10:28:25;9.73;;;7.20;;
14965;SDS011;7577;45.226;5.798;2022-11-21T10:30:57;8.50;;;7.23;;
14965;SDS011;7577;45.226;5.798;2022-11-21T10:33:30;8.83;;;7.50;;
14965;SDS011;7577;45.226;5.798;2022-11-21T10:36:04;7.67;;;6.63;;
14965;SDS011;7577;45.226;5.798;2022-11-21T10:38:40;8.07;;;6.10;;
14965;SDS011;7577;45.226;5.798;2022-11-21T10:41:13;7.53;;;6.33;;
14965;SDS011;7577;45.226;5.798;2022-11-21T10:43:46;8.30;;;5.20;;
14965;SDS011;7577;45.226;5.798;2022-11-21T10:46:37;5.43;;;4.70;;
14965;SDS011;7577;45.226;5.798;2022-11-21T10:49:09;5.67;;;4.17;;
14965;SDS011;7577;45.226;5.798;2022-11-21T10:52:00;5.17;;;4.50;;
14965;SDS011;7577;45.226;5.798;2022-11-21T10:54:54;6.80;;;4.00;;
14965;SDS011;7577;45.226;5.798;2022-11-21T10:57:43;4.53;;;3.30;;
14965;SDS011;7577;45.226;5.798;2022-11-21T11:00:16;4.77;;;3.47;;
14965;SDS011;7577;45.226;5.798;2022-11-21T11:03:08;4.40;;;3.77;;
14965;SDS011;7577;45.226;5.798;2022-11-21T11:05:42;6.17;;;3.73;;
14965;SDS011;7577;45.226;5.798;2022-11-21T11:08:21;5.43;;;4.27;;
14965;SDS011;7577;45.226;5.798;2022-11-21T11:11:11;4.53;;;3.60;;
14965;SDS011;7577;45.226;5.798;2022-11-21T11:13:51;8.27;;;6.30;;
14965;SDS011;7577;45.226;5.798;2022-11-21T11:16:30;8.03;;;5.30;;
14965;SDS011;7577;45.226;5.798;2022-11-21T11:19:04;5.00;;;4.00;;
14965;SDS011;7577;45.226;5.798;2022-11-21T11:21:43;5.07;;;3.80;;
14965;SDS011;7577;45.226;5.798;2022-11-21T11:24:20;5.03;;;3.93;;
14965;SDS011;7577;45.226;5.798;2022-11-21T11:26:56;4.93;;;3.90;;
14965;SDS011;7577;45.226;5.798;2022-11-21T11:29:29;8.50;;;3.70;;
14965;SDS011;7577;45.226;5.798;2022-11-21T11:32:12;4.47;;;3.53;;
14965;SDS011;7577;45.226;5.798;2022-11-21T11:34:45;5.47;;;3.90;;
14965;SDS011;7577;45.226;5.798;2022-11-21T11:37:18;4.73;;;3.60;;
14965;SDS011;7577;45.226;5.798;2022-11-21T11:39:54;5.27;;;4.17;;
14965;SDS011;7577;45.226;5.798;2022-11-21T11:46:04;5.70;;;4.23;;
14965;SDS011;7577;45.226;5.798;2022-11-21T11:49:16;6.40;;;4.47;;
14965;SDS011;7577;45.226;5.798;2022-11-21T11:51:58;6.10;;;4.60;;
14965;SDS011;7577;45.226;5.798;2022-11-21T11:54:34;4.83;;;4.10;;
14965;SDS011;7577;45.226;5.798;2022-11-21T11:57:11;6.53;;;4.20;;
14965;SDS011;7577;45.226;5.798;2022-11-21T11:59:57;6.60;;;4.47;;
14965;SDS011;7577;45.226;5.798;2022-11-21T12:02:36;8.93;;;4.90;;
14965;SDS011;7577;45.226;5.798;2022-11-21T12:05:11;7.17;;;5.10;;
14965;SDS011;7577;45.226;5.798;2022-11-21T12:07:48;4.83;;;4.03;;
14965;SDS011;7577;45.226;5.798;2022-11-21T12:10:26;6.90;;;4.20;;
14965;SDS011;7577;45.226;5.798;2022-11-21T12:13:03;7.13;;;5.20;;
14965;SDS011;7577;45.226;5.798;2022-11-21T12:15:39;6.67;;;4.97;;
14965;SDS011;7577;45.226;5.798;2022-11-21T12:18:31;6.63;;;6.03;;
14965;SDS011;7577;45.226;5.798;2022-11-21T12:21:06;8.70;;;5.33;;
14965;SDS011;7577;45.226;5.798;2022-11-21T12:23:39;8.10;;;5.03;;
14965;SDS011;7577;45.226;5.798;2022-11-21T12:26:24;6.67;;;4.73;;
14965;SDS011;7577;45.226;5.798;2022-11-21T12:29:05;7.10;;;4.03;;
14965;SDS011;7577;45.226;5.798;2022-11-21T12:31:57;5.50;;;4.00;;
14965;SDS011;7577;45.226;5.798;2022-11-21T12:34:43;7.67;;;4.40;;
14965;SDS011;7577;45.226;5.798;2022-11-21T12:37:26;5.13;;;4.17;;
14965;SDS011;7577;45.226;5.798;2022-11-21T12:40:00;8.10;;;4.73;;
14965;SDS011;7577;45.226;5.798;2022-11-21T12:42:45;7.23;;;4.43;;
14965;SDS011;7577;45.226;5.798;2022-11-21T12:45:28;6.23;;;4.13;;
14965;SDS011;7577;45.226;5.798;2022-11-21T12:48:24;5.30;;;4.27;;
14965;SDS011;7577;45.226;5.798;2022-11-21T12:51:41;5.77;;;5.03;;
14965;SDS011;7577;45.226;5.798;2022-11-21T12:55:13;4.80;;;3.93;;
14965;SDS011;7577;45.226;5.798;2022-11-21T12:57:58;5.47;;;4.07;;
14965;SDS011;7577;45.226;5.798;2022-11-21T13:00:38;5.00;;;3.60;;
14965;SDS011;7577;45.226;5.798;2022-11-21T13:03:21;5.53;;;3.93;;
14965;SDS011;7577;45.226;5.798;2022-11-21T13:05:59;6.87;;;3.50;;
14965;SDS011;7577;45.226;5.798;2022-11-21T13:08:41;6.00;;;3.87;;
14965;SDS011;7577;45.226;5.798;2022-11-21T13:11:26;5.00;;;4.30;;
14965;SDS011;7577;45.226;5.798;2022-11-21T13:14:25;7.10;;;4.63;;
14965;SDS011;7577;45.226;5.798;2022-11-21T13:17:08;5.40;;;4.30;;
14965;SDS011;7577;45.226;5.798;2022-11-21T13:19:43;6.77;;;4.73;;
14965;SDS011;7577;45.226;5.798;2022-11-21T13:25:38;8.83;;;5.33;;
14965;SDS011;7577;45.226;5.798;2022-11-21T13:28:34;7.30;;;5.17;;
14965;SDS011;7577;45.226;5.798;2022-11-21T13:33:58;7.07;;;4.70;;
14965;SDS011;7577;45.226;5.798;2022-11-21T13:36:39;7.63;;;4.60;;
14965;SDS011;7577;45.226;5.798;2022-11-21T13:48:15;5.83;;;4.40;;
14965;SDS011;7577;45.226;5.798;2022-11-21T13:51:12;6.37;;;4.20;;
14965;SDS011;7577;45.226;5.798;2022-11-21T13:54:13;7.40;;;5.20;;
14965;SDS011;7577;45.226;5.798;2022-11-21T13:57:08;7.87;;;4.53;;
14965;SDS011;7577;45.226;5.798;2022-11-21T13:59:51;5.93;;;4.23;;
14965;SDS011;7577;45.226;5.798;2022-11-21T14:02:49;6.90;;;4.30;;
14965;SDS011;7577;45.226;5.798;2022-11-21T14:05:52;3.87;;;2.97;;
14965;SDS011;7577;45.226;5.798;2022-11-21T14:08:37;7.07;;;2.97;;
14965;SDS011;7577;45.226;5.798;2022-11-21T14:11:20;4.00;;;2.43;;
14965;SDS011;7577;45.226;5.798;2022-11-21T14:13:58;1.77;;;1.10;;
14965;SDS011;7577;45.226;5.798;2022-11-21T14:16:34;1.40;;;1.30;;
14965;SDS011;7577;45.226;5.798;2022-11-21T14:19:12;2.07;;;0.90;;
14965;SDS011;7577;45.226;5.798;2022-11-21T14:21:45;1.70;;;1.30;;
14965;SDS011;7577;45.226;5.798;2022-11-21T14:24:24;2.07;;;1.30;;
14965;SDS011;7577;45.226;5.798;2022-11-21T14:26:55;1.40;;;1.00;;
14965;SDS011;7577;45.226;5.798;2022-11-21T14:29:26;1.87;;;1.03;;
14965;SDS011;7577;45.226;5.798;2022-11-21T14:32:01;0.90;;;0.80;;
14965;SDS011;7577;45.226;5.798;2022-11-21T14:34:31;0.90;;;0.80;;
14965;SDS011;7577;45.226;5.798;2022-11-21T14:37:02;0.80;;;0.80;;
14965;SDS011;7577;45.226;5.798;2022-11-21T14:39:40;1.17;;;0.70;;
14965;SDS011;7577;45.226;5.798;2022-11-21T14:42:13;1.00;;;0.80;;
14965;SDS011;7577;45.226;5.798;2022-11-21T14:44:44;0.80;;;0.70;;
14965;SDS011;7577;45.226;5.798;2022-11-21T14:47:27;1.30;;;0.90;;
14965;SDS011;7577;45.226;5.798;2022-11-21T14:49:57;0.70;;;0.70;;
14965;SDS011;7577;45.226;5.798;2022-11-21T14:52:37;0.97;;;0.70;;
14965;SDS011;7577;45.226;5.798;2022-11-21T14:55:19;1.20;;;1.00;;
14965;SDS011;7577;45.226;5.798;2022-11-21T14:57:57;1.27;;;1.00;;
14965;SDS011;7577;45.226;5.798;2022-11-21T15:00:43;1.60;;;0.80;;
14965;SDS011;7577;45.226;5.798;2022-11-21T15:03:30;1.63;;;0.70;;
14965;SDS011;7577;45.226;5.798;2022-11-21T15:06:01;1.70;;;1.10;;
14965;SDS011;7577;45.226;5.798;2022-11-21T15:08:48;1.10;;;0.97;;
14965;SDS011;7577;45.226;5.798;2022-11-21T15:11:22;1.07;;;0.87;;
14965;SDS011;7577;45.226;5.798;2022-11-21T15:13:57;0.80;;;0.80;;
14965;SDS011;7577;45.226;5.798;2022-11-21T15:16:34;0.67;;;0.67;;
14965;SDS011;7577;45.226;5.798;2022-11-21T15:19:07;0.63;;;0.63;;
14965;SDS011;7577;45.226;5.798;2022-11-21T15:21:46;0.87;;;0.80;;
14965;SDS011;7577;45.226;5.798;2022-11-21T15:24:26;1.50;;;0.80;;
14965;SDS011;7577;45.226;5.798;2022-11-21T15:30:06;1.20;;;0.90;;
14965;SDS011;7577;45.226;5.798;2022-11-21T15:33:08;2.53;;;1.00;;
14965;SDS011;7577;45.226;5.798;2022-11-21T15:35:44;1.73;;;0.97;;
14965;SDS011;7577;45.226;5.798;2022-11-21T15:38:16;1.57;;;0.80;;
14965;SDS011;7577;45.226;5.798;2022-11-21T15:41:21;1.93;;;0.60;;
14965;SDS011;7577;45.226;5.798;2022-11-21T15:43:39;1.47;;;1.20;;
14965;SDS011;7577;45.226;5.798;2022-11-21T15:46:14;1.87;;;1.33;;
14965;SDS011;7577;45.226;5.798;2022-11-21T15:48:47;1.40;;;0.93;;
14965;SDS011;7577;45.226;5.798;2022-11-21T15:51:19;1.20;;;1.10;;
14965;SDS011;7577;45.226;5.798;2022-11-21T15:53:53;1.00;;;0.87;;
14965;SDS011;7577;45.226;5.798;2022-11-21T15:56:24;3.10;;;2.10;;
14965;SDS011;7577;45.226;5.798;2022-11-21T15:58:55;5.00;;;2.80;;
14965;SDS011;7577;45.226;5.798;2022-11-21T16:01:26;6.33;;;3.90;;
14965;SDS011;7577;45.226;5.798;2022-11-21T16:03:59;2.60;;;2.17;;
14965;SDS011;7577;45.226;5.798;2022-11-21T16:06:31;1.93;;;1.50;;
14965;SDS011;7577;45.226;5.798;2022-11-21T16:09:02;2.70;;;1.70;;
14965;SDS011;7577;45.226;5.798;2022-11-21T16:11:43;1.77;;;1.40;;
14965;SDS011;7577;45.226;5.798;2022-11-21T16:14:13;1.63;;;1.53;;
14965;SDS011;7577;45.226;5.798;2022-11-21T16:16:45;1.93;;;1.70;;
14965;SDS011;7577;45.226;5.798;2022-11-21T16:19:15;1.50;;;1.20;;
14965;SDS011;7577;45.226;5.798;2022-11-21T16:21:45;2.20;;;1.67;;
14965;SDS011;7577;45.226;5.798;2022-11-21T16:24:15;2.73;;;1.50;;
14965;SDS011;7577;45.226;5.798;2022-11-21T16:26:45;1.13;;;0.97;;
14965;SDS011;7577;45.226;5.798;2022-11-21T16:29:17;1.87;;;1.37;;
14965;SDS011;7577;45.226;5.798;2022-11-21T16:31:49;1.50;;;0.90;;
14965;SDS011;7577;45.226;5.798;2022-11-21T16:34:20;0.73;;;0.70;;
14965;SDS011;7577;45.226;5.798;2022-11-21T16:36:50;0.80;;;0.67;;
14965;SDS011;7577;45.226;5.798;2022-11-21T16:39:22;0.67;;;0.67;;
14965;SDS011;7577;45.226;5.798;2022-11-21T16:41:52;1.13;;;1.03;;
14965;SDS011;7577;45.226;5.798;2022-11-21T16:44:22;0.80;;;0.70;;
14965;SDS011;7577;45.226;5.798;2022-11-21T16:46:55;1.03;;;0.83;;
14965;SDS011;7577;45.226;5.798;2022-11-21T16:49:25;0.83;;;0.80;;
14965;SDS011;7577;45.226;5.798;2022-11-21T16:52:08;0.73;;;0.70;;
14965;SDS011;7577;45.226;5.798;2022-11-21T16:54:38;0.97;;;0.90;;
14965;SDS011;7577;45.226;5.798;2022-11-21T16:57:08;2.83;;;1.60;;
14965;SDS011;7577;45.226;5.798;2022-11-21T16:59:39;1.13;;;0.90;;
14965;SDS011;7577;45.226;5.798;2022-11-21T17:02:10;1.13;;;1.00;;
14965;SDS011;7577;45.226;5.798;2022-11-21T17:04:40;1.00;;;0.90;;
14965;SDS011;7577;45.226;5.798;2022-11-21T17:07:10;1.30;;;1.00;;
14965;SDS011;7577;45.226;5.798;2022-11-21T17:09:41;3.07;;;1.30;;
14965;SDS011;7577;45.226;5.798;2022-11-21T17:12:11;1.97;;;0.90;;
14965;SDS011;7577;45.226;5.798;2022-11-21T17:14:51;1.70;;;0.90;;
14965;SDS011;7577;45.226;5.798;2022-11-21T17:17:21;2.07;;;1.20;;
14965;SDS011;7577;45.226;5.798;2022-11-21T17:20:26;1.27;;;1.10;;
14965;SDS011;7577;45.226;5.798;2022-11-21T17:23:36;3.27;;;1.40;;
14965;SDS011;7577;45.226;5.798;2022-11-21T17:29:48;0.70;;;0.70;;
14965;SDS011;7577;45.226;5.798;2022-11-21T17:32:18;1.23;;;1.00;;
14965;SDS011;7577;45.226;5.798;2022-11-21T17:34:57;2.43;;;1.90;;
14965;SDS011;7577;45.226;5.798;2022-11-21T17:37:29;3.20;;;1.70;;
14965;SDS011;7577;45.226;5.798;2022-11-21T17:39:59;2.33;;;1.70;;
14965;SDS011;7577;45.226;5.798;2022-11-21T17:42:42;2.80;;;2.03;;
14965;SDS011;7577;45.226;5.798;2022-11-21T17:48:22;3.80;;;2.60;;
14965;SDS011;7577;45.226;5.798;2022-11-21T17:50:59;2.97;;;2.30;;
14965;SDS011;7577;45.226;5.798;2022-11-21T17:53:32;3.20;;;2.70;;
14965;SDS011;7577;45.226;5.798;2022-11-21T17:56:03;3.10;;;2.80;;
14965;SDS011;7577;45.226;5.798;2022-11-21T17:58:45;4.10;;;3.20;;
14965;SDS011;7577;45.226;5.798;2022-11-21T18:01:16;6.90;;;4.20;;
14965;SDS011;7577;45.226;5.798;2022-11-21T18:03:52;5.80;;;4.27;;
14965;SDS011;7577;45.226;5.798;2022-11-21T18:06:23;6.73;;;5.10;;
14965;SDS011;7577;45.226;5.798;2022-11-21T18:08:54;17.63;;;12.10;;
14965;SDS011;7577;45.226;5.798;2022-11-21T18:11:27;17.13;;;10.73;;
14965;SDS011;7577;45.226;5.798;2022-11-21T18:13:58;17.60;;;10.67;;
14965;SDS011;7577;45.226;5.798;2022-11-21T18:16:33;16.00;;;11.00;;
14965;SDS011;7577;45.226;5.798;2022-11-21T18:42:02;4.87;;;3.53;;
14965;SDS011;7577;45.226;5.798;2022-11-21T18:44:54;5.97;;;3.67;;
14965;SDS011;7577;45.226;5.798;2022-11-21T19:00:50;7.13;;;5.20;;
14965;SDS011;7577;45.226;5.798;2022-11-21T19:21:48;8.90;;;6.83;;
14965;SDS011;7577;45.226;5.798;2022-11-21T19:24:18;7.57;;;6.03;;
14965;SDS011;7577;45.226;5.798;2022-11-21T19:26:48;9.30;;;7.17;;
14965;SDS011;7577;45.226;5.798;2022-11-21T19:29:29;12.40;;;7.93;;
14965;SDS011;7577;45.226;5.798;2022-11-21T19:31:59;14.60;;;10.43;;
14965;SDS011;7577;45.226;5.798;2022-11-21T19:34:30;16.83;;;11.10;;
14965;SDS011;7577;45.226;5.798;2022-11-21T19:37:00;10.47;;;6.87;;
14965;SDS011;7577;45.226;5.798;2022-11-21T19:39:30;6.73;;;4.90;;
14965;SDS011;7577;45.226;5.798;2022-11-21T19:42:00;5.17;;;3.80;;
14965;SDS011;7577;45.226;5.798;2022-11-21T19:44:45;5.90;;;3.87;;
14965;SDS011;7577;45.226;5.798;2022-11-21T19:47:15;4.80;;;3.57;;
14965;SDS011;7577;45.226;5.798;2022-11-21T19:49:56;5.30;;;4.80;;
14965;SDS011;7577;45.226;5.798;2022-11-21T19:52:26;7.47;;;6.30;;
14965;SDS011;7577;45.226;5.798;2022-11-21T19:54:57;9.03;;;6.97;;
14965;SDS011;7577;45.226;5.798;2022-11-21T19:57:28;12.37;;;8.00;;
14965;SDS011;7577;45.226;5.798;2022-11-21T20:02:41;10.30;;;7.80;;
14965;SDS011;7577;45.226;5.798;2022-11-21T20:05:12;9.77;;;7.87;;
14965;SDS011;7577;45.226;5.798;2022-11-21T20:07:52;9.27;;;7.57;;
14965;SDS011;7577;45.226;5.798;2022-11-21T20:10:22;9.60;;;7.30;;